sensor_id;sensor_type;location;lat;lon;timestamp;temperature;humidity
56300;DHT22;42209;6.376;-10.782;2022-08-11T00:01:59;22.60;81.00
56300;DHT22;42209;6.376;-10.782;2022-08-11T00:04:34;22.70;81.70
56300;DHT22;42209;6.376;-10.782;2022-08-11T00:07:06;22.80;82.80
56300;DHT22;42209;6.376;-10.782;2022-08-11T00:09:36;22.80;83.40
56300;DHT22;42209;6.376;-10.782;2022-08-11T00:12:17;22.80;83.70
56300;DHT22;42209;6.376;-10.782;2022-08-11T00:14:46;22.90;84.20
56300;DHT22;42209;6.376;-10.782;2022-08-11T00:17:27;22.90;84.50
56300;DHT22;42209;6.376;-10.782;2022-08-11T00:20:03;23.00;84.50
56300;DHT22;42209;6.376;-10.782;2022-08-11T00:22:44;22.80;77.50
56300;DHT22;42209;6.376;-10.782;2022-08-11T00:25:19;22.20;73.20
56300;DHT22;42209;6.376;-10.782;2022-08-11T00:27:48;21.90;70.90
56300;DHT22;42209;6.376;-10.782;2022-08-11T00:30:16;21.60;69.00
56300;DHT22;42209;6.376;-10.782;2022-08-11T00:32:55;21.50;68.20
56300;DHT22;42209;6.376;-10.782;2022-08-11T00:35:27;21.80;72.80
56300;DHT22;42209;6.376;-10.782;2022-08-11T00:38:21;22.10;75.80
56300;DHT22;42209;6.376;-10.782;2022-08-11T00:41:03;22.30;77.40
56300;DHT22;42209;6.376;-10.782;2022-08-11T00:46:30;22.50;79.80
56300;DHT22;42209;6.376;-10.782;2022-08-11T01:00:19;22.80;83.00
56300;DHT22;42209;6.376;-10.782;2022-08-11T01:03:17;22.80;83.40
56300;DHT22;42209;6.376;-10.782;2022-08-11T01:06:12;22.90;83.70
56300;DHT22;42209;6.376;-10.782;2022-08-11T01:24:43;21.60;70.30
56300;DHT22;42209;6.376;-10.782;2022-08-11T01:27:37;22.10;75.80
56300;DHT22;42209;6.376;-10.782;2022-08-11T01:33:53;22.50;79.50
56300;DHT22;42209;6.376;-10.782;2022-08-11T01:39:37;22.60;81.60
56300;DHT22;42209;6.376;-10.782;2022-08-11T01:51:22;22.90;84.40
56300;DHT22;42209;6.376;-10.782;2022-08-11T01:59:51;23.00;81.10
56300;DHT22;42209;6.376;-10.782;2022-08-11T02:03:04;22.50;75.40
56300;DHT22;42209;6.376;-10.782;2022-08-11T02:21:51;23.00;85.00
56300;DHT22;42209;6.376;-10.782;2022-08-11T02:24:40;23.10;85.30
56300;DHT22;42209;6.376;-10.782;2022-08-11T02:27:20;23.10;85.30
56300;DHT22;42209;6.376;-10.782;2022-08-11T02:30:09;22.70;75.40
56300;DHT22;42209;6.376;-10.782;2022-08-11T02:33:00;22.10;72.40
56300;DHT22;42209;6.376;-10.782;2022-08-11T02:36:05;21.80;70.20
56300;DHT22;42209;6.376;-10.782;2022-08-11T02:39:02;21.60;68.70
56300;DHT22;42209;6.376;-10.782;2022-08-11T02:41:38;22.00;74.20
56300;DHT22;42209;6.376;-10.782;2022-08-11T02:44:28;22.20;76.80
56300;DHT22;42209;6.376;-10.782;2022-08-11T02:47:06;22.40;78.20
56300;DHT22;42209;6.376;-10.782;2022-08-11T02:50:11;22.50;79.30
56300;DHT22;42209;6.376;-10.782;2022-08-11T02:52:54;22.60;80.40
56300;DHT22;42209;6.376;-10.782;2022-08-11T02:58:47;22.80;81.90
56300;DHT22;42209;6.376;-10.782;2022-08-11T03:01:26;22.80;82.70
56300;DHT22;42209;6.376;-10.782;2022-08-11T03:04:02;22.80;83.30
56300;DHT22;42209;6.376;-10.782;2022-08-11T03:06:58;22.90;83.80
56300;DHT22;42209;6.376;-10.782;2022-08-11T03:12:14;23.00;84.50
56300;DHT22;42209;6.376;-10.782;2022-08-11T03:15:02;23.00;84.60
56300;DHT22;42209;6.376;-10.782;2022-08-11T03:17:59;22.90;77.40
56300;DHT22;42209;6.376;-10.782;2022-08-11T03:20:44;22.30;73.20
56300;DHT22;42209;6.376;-10.782;2022-08-11T03:23:55;21.90;70.80
56300;DHT22;42209;6.376;-10.782;2022-08-11T03:29:41;21.90;73.70
56300;DHT22;42209;6.376;-10.782;2022-08-11T03:32:40;22.20;77.00
56300;DHT22;42209;6.376;-10.782;2022-08-11T03:35:17;22.40;78.40
56300;DHT22;42209;6.376;-10.782;2022-08-11T03:38:01;22.50;79.70
56300;DHT22;42209;6.376;-10.782;2022-08-11T03:49:56;22.80;82.90
56300;DHT22;42209;6.376;-10.782;2022-08-11T04:04:30;23.00;83.70
56300;DHT22;42209;6.376;-10.782;2022-08-11T04:16:48;21.80;72.00
56300;DHT22;42209;6.376;-10.782;2022-08-11T04:28:47;22.60;80.10
56300;DHT22;42209;6.376;-10.782;2022-08-11T04:31:34;22.60;81.20
56300;DHT22;42209;6.376;-10.782;2022-08-11T05:06:49;22.20;76.50
56300;DHT22;42209;6.376;-10.782;2022-08-11T05:12:40;22.50;79.30
56300;DHT22;42209;6.376;-10.782;2022-08-11T05:15:28;22.60;80.30
56300;DHT22;42209;6.376;-10.782;2022-08-11T05:18:15;22.60;81.00
56300;DHT22;42209;6.376;-10.782;2022-08-11T05:20:53;22.70;81.80
56300;DHT22;42209;6.376;-10.782;2022-08-11T05:23:26;22.80;82.60
56300;DHT22;42209;6.376;-10.782;2022-08-11T05:25:57;22.80;83.00
56300;DHT22;42209;6.376;-10.782;2022-08-11T05:28:51;22.80;83.40
56300;DHT22;42209;6.376;-10.782;2022-08-11T05:31:25;22.90;83.70
56300;DHT22;42209;6.376;-10.782;2022-08-11T05:34:31;22.90;83.70
56300;DHT22;42209;6.376;-10.782;2022-08-11T05:37:12;23.00;83.90
56300;DHT22;42209;6.376;-10.782;2022-08-11T05:40:07;23.00;79.90
56300;DHT22;42209;6.376;-10.782;2022-08-11T05:42:42;22.40;72.80
56300;DHT22;42209;6.376;-10.782;2022-08-11T05:45:16;21.90;70.20
56300;DHT22;42209;6.376;-10.782;2022-08-11T05:47:49;21.60;69.00
56300;DHT22;42209;6.376;-10.782;2022-08-11T05:50:18;21.90;73.70
56300;DHT22;42209;6.376;-10.782;2022-08-11T05:53:01;22.10;76.30
56300;DHT22;42209;6.376;-10.782;2022-08-11T05:55:39;22.30;77.80
56300;DHT22;42209;6.376;-10.782;2022-08-11T05:58:42;22.50;78.80
56300;DHT22;42209;6.376;-10.782;2022-08-11T06:01:13;22.60;80.10
56300;DHT22;42209;6.376;-10.782;2022-08-11T06:03:44;22.60;80.80
56300;DHT22;42209;6.376;-10.782;2022-08-11T06:06:26;22.60;81.30
56300;DHT22;42209;6.376;-10.782;2022-08-11T06:08:56;22.70;80.90
56300;DHT22;42209;6.376;-10.782;2022-08-11T06:11:26;22.80;80.60
56300;DHT22;42209;6.376;-10.782;2022-08-11T06:14:11;22.80;81.30
56300;DHT22;42209;6.376;-10.782;2022-08-11T06:16:42;22.90;82.00
56300;DHT22;42209;6.376;-10.782;2022-08-11T06:19:14;22.90;82.60
56300;DHT22;42209;6.376;-10.782;2022-08-11T06:21:45;23.00;82.80
56300;DHT22;42209;6.376;-10.782;2022-08-11T06:24:15;23.00;82.90
56300;DHT22;42209;6.376;-10.782;2022-08-11T06:26:51;23.00;82.70
56300;DHT22;42209;6.376;-10.782;2022-08-11T06:29:48;22.70;75.00
56300;DHT22;42209;6.376;-10.782;2022-08-11T06:32:45;22.10;70.70
56300;DHT22;42209;6.376;-10.782;2022-08-11T06:35:46;21.70;68.80
56300;DHT22;42209;6.376;-10.782;2022-08-11T06:38:54;21.90;72.80
56300;DHT22;42209;6.376;-10.782;2022-08-11T06:41:53;22.20;76.90
56300;DHT22;42209;6.376;-10.782;2022-08-11T06:44:39;22.40;77.70
56300;DHT22;42209;6.376;-10.782;2022-08-11T06:47:10;22.50;78.90
56300;DHT22;42209;6.376;-10.782;2022-08-11T06:49:47;22.60;79.60
56300;DHT22;42209;6.376;-10.782;2022-08-11T06:52:15;22.60;80.40
56300;DHT22;42209;6.376;-10.782;2022-08-11T06:55:12;22.70;81.10
56300;DHT22;42209;6.376;-10.782;2022-08-11T06:58:02;22.70;81.90
56300;DHT22;42209;6.376;-10.782;2022-08-11T07:00:32;22.80;82.50
56300;DHT22;42209;6.376;-10.782;2022-08-11T07:03:12;22.80;82.80
56300;DHT22;42209;6.376;-10.782;2022-08-11T07:05:51;22.90;83.50
56300;DHT22;42209;6.376;-10.782;2022-08-11T07:11:58;23.00;84.20
56300;DHT22;42209;6.376;-10.782;2022-08-11T07:14:29;23.00;81.80
56300;DHT22;42209;6.376;-10.782;2022-08-11T07:17:07;22.50;74.00
56300;DHT22;42209;6.376;-10.782;2022-08-11T07:19:40;21.90;71.40
56300;DHT22;42209;6.376;-10.782;2022-08-11T07:22:11;21.70;70.40
56300;DHT22;42209;6.376;-10.782;2022-08-11T07:25:01;22.00;75.80
56300;DHT22;42209;6.376;-10.782;2022-08-11T07:27:42;22.30;78.10
56300;DHT22;42209;6.376;-10.782;2022-08-11T07:30:11;22.50;79.40
56300;DHT22;42209;6.376;-10.782;2022-08-11T07:32:55;22.60;80.20
56300;DHT22;42209;6.376;-10.782;2022-08-11T07:35:33;22.70;81.20
56300;DHT22;42209;6.376;-10.782;2022-08-11T07:38:29;22.80;82.00
56300;DHT22;42209;6.376;-10.782;2022-08-11T07:40:57;22.80;82.70
56300;DHT22;42209;6.376;-10.782;2022-08-11T07:43:27;22.90;83.70
56300;DHT22;42209;6.376;-10.782;2022-08-11T07:45:57;23.00;84.10
56300;DHT22;42209;6.376;-10.782;2022-08-11T07:48:25;23.00;84.50
56300;DHT22;42209;6.376;-10.782;2022-08-11T07:50:53;23.10;85.00
56300;DHT22;42209;6.376;-10.782;2022-08-11T07:53:22;23.10;85.10
56300;DHT22;42209;6.376;-10.782;2022-08-11T07:55:53;23.10;81.50
56300;DHT22;42209;6.376;-10.782;2022-08-11T07:58:25;22.60;75.30
56300;DHT22;42209;6.376;-10.782;2022-08-11T08:01:00;22.10;72.60
56300;DHT22;42209;6.376;-10.782;2022-08-11T08:03:29;21.80;70.20
56300;DHT22;42209;6.376;-10.782;2022-08-11T08:05:58;21.70;69.40
56300;DHT22;42209;6.376;-10.782;2022-08-11T08:08:26;22.00;74.60
56300;DHT22;42209;6.376;-10.782;2022-08-11T08:10:56;22.30;77.80
56300;DHT22;42209;6.376;-10.782;2022-08-11T08:13:24;22.50;79.10
56300;DHT22;42209;6.376;-10.782;2022-08-11T08:15:53;22.60;79.90
56300;DHT22;42209;6.376;-10.782;2022-08-11T08:18:23;22.60;80.80
56300;DHT22;42209;6.376;-10.782;2022-08-11T08:20:56;22.70;81.70
56300;DHT22;42209;6.376;-10.782;2022-08-11T08:23:26;22.80;82.50
56300;DHT22;42209;6.376;-10.782;2022-08-11T08:25:54;22.80;82.90
56300;DHT22;42209;6.376;-10.782;2022-08-11T08:28:23;22.90;83.40
56300;DHT22;42209;6.376;-10.782;2022-08-11T08:30:58;22.90;83.90
56300;DHT22;42209;6.376;-10.782;2022-08-11T08:33:30;22.90;84.30
56300;DHT22;42209;6.376;-10.782;2022-08-11T08:36:01;23.00;84.60
56300;DHT22;42209;6.376;-10.782;2022-08-11T08:38:30;23.00;84.80
56300;DHT22;42209;6.376;-10.782;2022-08-11T08:40:58;23.10;85.50
56300;DHT22;42209;6.376;-10.782;2022-08-11T08:43:27;23.10;82.60
56300;DHT22;42209;6.376;-10.782;2022-08-11T08:46:18;22.60;76.00
56300;DHT22;42209;6.376;-10.782;2022-08-11T08:48:48;22.20;73.10
56300;DHT22;42209;6.376;-10.782;2022-08-11T08:51:21;21.90;71.40
56300;DHT22;42209;6.376;-10.782;2022-08-11T08:53:52;21.60;69.90
56300;DHT22;42209;6.376;-10.782;2022-08-11T08:56:27;21.90;73.90
56300;DHT22;42209;6.376;-10.782;2022-08-11T08:58:57;22.20;77.00
56300;DHT22;42209;6.376;-10.782;2022-08-11T09:01:29;22.40;78.80
56300;DHT22;42209;6.376;-10.782;2022-08-11T09:03:59;22.50;80.00
56300;DHT22;42209;6.376;-10.782;2022-08-11T09:06:39;22.60;81.10
56300;DHT22;42209;6.376;-10.782;2022-08-11T09:09:08;22.70;82.10
56300;DHT22;42209;6.376;-10.782;2022-08-11T09:11:39;22.80;83.00
56300;DHT22;42209;6.376;-10.782;2022-08-11T09:14:09;22.80;83.80
56300;DHT22;42209;6.376;-10.782;2022-08-11T09:16:41;22.90;84.10
56300;DHT22;42209;6.376;-10.782;2022-08-11T09:19:10;23.00;84.90
56300;DHT22;42209;6.376;-10.782;2022-08-11T09:21:41;23.00;85.40
56300;DHT22;42209;6.376;-10.782;2022-08-11T09:24:17;23.00;85.70
56300;DHT22;42209;6.376;-10.782;2022-08-11T09:26:53;23.00;85.80
56300;DHT22;42209;6.376;-10.782;2022-08-11T09:29:21;22.70;77.50
56300;DHT22;42209;6.376;-10.782;2022-08-11T09:31:49;22.20;73.90
56300;DHT22;42209;6.376;-10.782;2022-08-11T09:34:19;21.90;72.30
56300;DHT22;42209;6.376;-10.782;2022-08-11T09:36:48;21.80;70.00
56300;DHT22;42209;6.376;-10.782;2022-08-11T09:39:18;21.60;68.30
56300;DHT22;42209;6.376;-10.782;2022-08-11T09:41:50;21.60;69.20
56300;DHT22;42209;6.376;-10.782;2022-08-11T09:44:30;22.00;74.50
56300;DHT22;42209;6.376;-10.782;2022-08-11T09:47:01;22.20;76.80
56300;DHT22;42209;6.376;-10.782;2022-08-11T09:49:29;22.40;78.20
56300;DHT22;42209;6.376;-10.782;2022-08-11T09:52:00;22.50;79.50
56300;DHT22;42209;6.376;-10.782;2022-08-11T09:54:32;22.60;80.70
56300;DHT22;42209;6.376;-10.782;2022-08-11T09:57:00;22.70;81.60
56300;DHT22;42209;6.376;-10.782;2022-08-11T09:59:32;22.70;82.30
56300;DHT22;42209;6.376;-10.782;2022-08-11T10:02:01;22.80;82.90
56300;DHT22;42209;6.376;-10.782;2022-08-11T10:04:42;22.90;83.70
56300;DHT22;42209;6.376;-10.782;2022-08-11T10:07:15;22.90;84.10
56300;DHT22;42209;6.376;-10.782;2022-08-11T10:12:26;23.00;84.90
56300;DHT22;42209;6.376;-10.782;2022-08-11T10:15:00;23.00;83.50
56300;DHT22;42209;6.376;-10.782;2022-08-11T10:17:32;22.60;76.00
56300;DHT22;42209;6.376;-10.782;2022-08-11T10:20:01;22.10;73.30
56300;DHT22;42209;6.376;-10.782;2022-08-11T10:22:34;21.90;71.20
56300;DHT22;42209;6.376;-10.782;2022-08-11T10:25:03;21.70;69.10
56300;DHT22;42209;6.376;-10.782;2022-08-11T10:27:32;21.60;67.50
56300;DHT22;42209;6.376;-10.782;2022-08-11T10:30:24;21.80;71.00
56300;DHT22;42209;6.376;-10.782;2022-08-11T10:32:56;22.10;75.30
56300;DHT22;42209;6.376;-10.782;2022-08-11T10:35:28;22.40;77.30
56300;DHT22;42209;6.376;-10.782;2022-08-11T10:37:58;22.50;78.80
56300;DHT22;42209;6.376;-10.782;2022-08-11T10:40:33;22.60;79.90
56300;DHT22;42209;6.376;-10.782;2022-08-11T10:43:02;22.60;81.00
56300;DHT22;42209;6.376;-10.782;2022-08-11T10:45:35;22.70;81.90
56300;DHT22;42209;6.376;-10.782;2022-08-11T10:48:05;22.80;82.70
56300;DHT22;42209;6.376;-10.782;2022-08-11T10:50:40;22.80;83.20
56300;DHT22;42209;6.376;-10.782;2022-08-11T10:53:13;22.90;83.90
56300;DHT22;42209;6.376;-10.782;2022-08-11T10:55:43;23.00;84.50
56300;DHT22;42209;6.376;-10.782;2022-08-11T10:58:13;23.00;84.80
56300;DHT22;42209;6.376;-10.782;2022-08-11T11:00:44;23.00;83.40
56300;DHT22;42209;6.376;-10.782;2022-08-11T11:03:12;22.60;75.90
56300;DHT22;42209;6.376;-10.782;2022-08-11T11:05:51;22.20;73.00
56300;DHT22;42209;6.376;-10.782;2022-08-11T11:08:44;21.90;71.00
56300;DHT22;42209;6.376;-10.782;2022-08-11T11:11:20;21.80;69.50
56300;DHT22;42209;6.376;-10.782;2022-08-11T11:13:51;21.70;68.20
56300;DHT22;42209;6.376;-10.782;2022-08-11T11:16:25;21.60;66.90
56300;DHT22;42209;6.376;-10.782;2022-08-11T11:19:00;21.50;65.70
56300;DHT22;42209;6.376;-10.782;2022-08-11T11:21:33;21.40;65.00
56300;DHT22;42209;6.376;-10.782;2022-08-11T11:26:59;22.00;73.20
56300;DHT22;42209;6.376;-10.782;2022-08-11T11:32:30;22.40;77.20
56300;DHT22;42209;6.376;-10.782;2022-08-11T11:35:16;22.50;78.80
56300;DHT22;42209;6.376;-10.782;2022-08-11T11:37:50;22.60;80.60
56300;DHT22;42209;6.376;-10.782;2022-08-11T11:40:32;22.70;81.00
56300;DHT22;42209;6.376;-10.782;2022-08-11T11:43:04;22.70;81.90
56300;DHT22;42209;6.376;-10.782;2022-08-11T11:45:33;22.80;81.50
56300;DHT22;42209;6.376;-10.782;2022-08-11T11:48:02;22.60;75.30
56300;DHT22;42209;6.376;-10.782;2022-08-11T11:50:35;22.20;71.50
56300;DHT22;42209;6.376;-10.782;2022-08-11T11:53:08;21.90;68.70
56300;DHT22;42209;6.376;-10.782;2022-08-11T11:55:38;21.60;66.70
56300;DHT22;42209;6.376;-10.782;2022-08-11T11:58:08;21.50;65.10
56300;DHT22;42209;6.376;-10.782;2022-08-11T12:00:44;21.30;63.60
56300;DHT22;42209;6.376;-10.782;2022-08-11T12:03:14;21.60;67.70
56300;DHT22;42209;6.376;-10.782;2022-08-11T12:05:44;22.00;71.60
56300;DHT22;42209;6.376;-10.782;2022-08-11T12:08:14;22.20;73.50
56300;DHT22;42209;6.376;-10.782;2022-08-11T12:10:51;22.30;75.40
56300;DHT22;42209;6.376;-10.782;2022-08-11T12:13:20;22.40;76.60
56300;DHT22;42209;6.376;-10.782;2022-08-11T12:15:49;22.50;77.70
56300;DHT22;42209;6.376;-10.782;2022-08-11T12:18:39;22.60;78.90
56300;DHT22;42209;6.376;-10.782;2022-08-11T12:21:11;22.60;79.50
56300;DHT22;42209;6.376;-10.782;2022-08-11T12:23:44;22.70;80.40
56300;DHT22;42209;6.376;-10.782;2022-08-11T12:26:15;22.80;80.70
56300;DHT22;42209;6.376;-10.782;2022-08-11T12:28:54;22.80;81.10
56300;DHT22;42209;6.376;-10.782;2022-08-11T12:31:23;22.90;81.30
56300;DHT22;42209;6.376;-10.782;2022-08-11T12:33:51;23.00;80.60
56300;DHT22;42209;6.376;-10.782;2022-08-11T12:36:20;22.50;73.00
56300;DHT22;42209;6.376;-10.782;2022-08-11T12:38:49;22.10;70.40
56300;DHT22;42209;6.376;-10.782;2022-08-11T12:41:21;21.90;68.10
56300;DHT22;42209;6.376;-10.782;2022-08-11T12:43:50;21.70;66.40
56300;DHT22;42209;6.376;-10.782;2022-08-11T12:46:30;21.60;65.40
56300;DHT22;42209;6.376;-10.782;2022-08-11T12:49:17;21.50;63.90
56300;DHT22;42209;6.376;-10.782;2022-08-11T12:51:51;21.70;66.40
56300;DHT22;42209;6.376;-10.782;2022-08-11T12:57:59;22.30;75.40
56300;DHT22;42209;6.376;-10.782;2022-08-11T13:00:11;22.50;76.90
56300;DHT22;42209;6.376;-10.782;2022-08-11T13:02:40;22.60;78.30
56300;DHT22;42209;6.376;-10.782;2022-08-11T13:05:15;22.70;79.50
56300;DHT22;42209;6.376;-10.782;2022-08-11T13:07:45;22.70;80.10
56300;DHT22;42209;6.376;-10.782;2022-08-11T13:10:18;22.80;80.70
56300;DHT22;42209;6.376;-10.782;2022-08-11T13:12:52;22.80;81.50
56300;DHT22;42209;6.376;-10.782;2022-08-11T13:15:22;22.90;81.90
56300;DHT22;42209;6.376;-10.782;2022-08-11T13:17:53;23.00;81.70
56300;DHT22;42209;6.376;-10.782;2022-08-11T13:20:23;22.60;73.40
56300;DHT22;42209;6.376;-10.782;2022-08-11T13:22:54;22.20;70.40
56300;DHT22;42209;6.376;-10.782;2022-08-11T13:25:26;21.90;68.20
56300;DHT22;42209;6.376;-10.782;2022-08-11T13:27:58;21.70;66.20
56300;DHT22;42209;6.376;-10.782;2022-08-11T13:30:29;21.50;64.70
56300;DHT22;42209;6.376;-10.782;2022-08-11T13:33:04;21.40;63.00
56300;DHT22;42209;6.376;-10.782;2022-08-11T13:35:33;21.30;61.80
56300;DHT22;42209;6.376;-10.782;2022-08-11T13:38:03;21.60;65.10
56300;DHT22;42209;6.376;-10.782;2022-08-11T13:40:48;21.90;69.60
56300;DHT22;42209;6.376;-10.782;2022-08-11T13:43:23;22.20;71.90
56300;DHT22;42209;6.376;-10.782;2022-08-11T13:45:52;22.30;73.30
56300;DHT22;42209;6.376;-10.782;2022-08-11T13:48:21;22.40;74.70
56300;DHT22;42209;6.376;-10.782;2022-08-11T13:50:49;22.50;75.90
56300;DHT22;42209;6.376;-10.782;2022-08-11T13:53:21;22.60;76.90
56300;DHT22;42209;6.376;-10.782;2022-08-11T13:55:52;22.70;77.60
56300;DHT22;42209;6.376;-10.782;2022-08-11T13:58:22;22.70;78.50
56300;DHT22;42209;6.376;-10.782;2022-08-11T14:01:07;22.80;79.10
56300;DHT22;42209;6.376;-10.782;2022-08-11T14:04:05;22.80;79.30
56300;DHT22;42209;6.376;-10.782;2022-08-11T14:06:55;22.90;79.50
56300;DHT22;42209;6.376;-10.782;2022-08-11T14:09:27;22.80;75.70
56300;DHT22;42209;6.376;-10.782;2022-08-11T14:12:00;22.40;70.40
56300;DHT22;42209;6.376;-10.782;2022-08-11T14:15:04;21.90;68.10
56300;DHT22;42209;6.376;-10.782;2022-08-11T14:17:37;21.60;65.80
56300;DHT22;42209;6.376;-10.782;2022-08-11T14:20:17;21.50;64.00
56300;DHT22;42209;6.376;-10.782;2022-08-11T14:23:08;21.40;62.20
56300;DHT22;42209;6.376;-10.782;2022-08-11T14:25:39;21.30;62.40
56300;DHT22;42209;6.376;-10.782;2022-08-11T14:28:30;21.80;67.90
56300;DHT22;42209;6.376;-10.782;2022-08-11T14:31:08;22.10;70.50
56300;DHT22;42209;6.376;-10.782;2022-08-11T14:33:38;22.30;72.50
56300;DHT22;42209;6.376;-10.782;2022-08-11T14:36:38;22.40;73.70
56300;DHT22;42209;6.376;-10.782;2022-08-11T14:39:13;22.50;75.00
56300;DHT22;42209;6.376;-10.782;2022-08-11T14:41:50;22.60;76.00
56300;DHT22;42209;6.376;-10.782;2022-08-11T14:44:43;22.70;77.00
56300;DHT22;42209;6.376;-10.782;2022-08-11T14:47:13;22.70;77.70
56300;DHT22;42209;6.376;-10.782;2022-08-11T14:49:54;22.80;78.20
56300;DHT22;42209;6.376;-10.782;2022-08-11T14:52:43;22.80;78.50
56300;DHT22;42209;6.376;-10.782;2022-08-11T14:55:13;22.90;78.40
56300;DHT22;42209;6.376;-10.782;2022-08-11T14:57:42;22.90;74.90
56300;DHT22;42209;6.376;-10.782;2022-08-11T15:00:23;22.40;69.60
56300;DHT22;42209;6.376;-10.782;2022-08-11T15:02:53;22.00;67.40
56300;DHT22;42209;6.376;-10.782;2022-08-11T15:05:23;21.70;65.20
56300;DHT22;42209;6.376;-10.782;2022-08-11T15:07:54;21.50;63.70
56300;DHT22;42209;6.376;-10.782;2022-08-11T15:10:24;21.40;62.10
56300;DHT22;42209;6.376;-10.782;2022-08-11T15:12:53;21.30;60.50
56300;DHT22;42209;6.376;-10.782;2022-08-11T15:15:25;21.50;63.60
56300;DHT22;42209;6.376;-10.782;2022-08-11T15:17:56;21.90;68.50
56300;DHT22;42209;6.376;-10.782;2022-08-11T15:20:27;22.10;70.40
56300;DHT22;42209;6.376;-10.782;2022-08-11T15:23:00;22.30;71.80
56300;DHT22;42209;6.376;-10.782;2022-08-11T15:25:29;22.40;73.00
56300;DHT22;42209;6.376;-10.782;2022-08-11T15:27:59;22.50;74.30
56300;DHT22;42209;6.376;-10.782;2022-08-11T15:30:29;22.60;75.20
56300;DHT22;42209;6.376;-10.782;2022-08-11T15:33:04;22.60;76.00
56300;DHT22;42209;6.376;-10.782;2022-08-11T15:35:36;22.70;76.90
56300;DHT22;42209;6.376;-10.782;2022-08-11T15:38:08;22.80;77.00
56300;DHT22;42209;6.376;-10.782;2022-08-11T15:40:40;22.80;77.30
56300;DHT22;42209;6.376;-10.782;2022-08-11T15:43:18;22.90;77.50
56300;DHT22;42209;6.376;-10.782;2022-08-11T15:45:52;22.70;71.00
56300;DHT22;42209;6.376;-10.782;2022-08-11T15:48:35;22.20;67.40
56300;DHT22;42209;6.376;-10.782;2022-08-11T15:51:56;21.80;65.70
56300;DHT22;42209;6.376;-10.782;2022-08-11T15:54:31;21.60;63.30
56300;DHT22;42209;6.376;-10.782;2022-08-11T15:57:00;21.40;62.10
56300;DHT22;42209;6.376;-10.782;2022-08-11T15:59:32;21.30;60.50
56300;DHT22;42209;6.376;-10.782;2022-08-11T16:02:12;21.50;61.80
56300;DHT22;42209;6.376;-10.782;2022-08-11T16:04:44;21.80;67.50
56300;DHT22;42209;6.376;-10.782;2022-08-11T16:07:20;22.10;70.60
56300;DHT22;42209;6.376;-10.782;2022-08-11T16:10:12;22.30;72.30
56300;DHT22;42209;6.376;-10.782;2022-08-11T16:15:19;22.50;75.40
56300;DHT22;42209;6.376;-10.782;2022-08-11T16:17:49;22.60;76.40
56300;DHT22;42209;6.376;-10.782;2022-08-11T16:20:22;22.70;77.50
56300;DHT22;42209;6.376;-10.782;2022-08-11T16:22:58;22.70;77.70
56300;DHT22;42209;6.376;-10.782;2022-08-11T16:25:33;22.80;77.90
56300;DHT22;42209;6.376;-10.782;2022-08-11T16:28:22;22.90;77.60
56300;DHT22;42209;6.376;-10.782;2022-08-11T16:30:52;22.80;73.50
56300;DHT22;42209;6.376;-10.782;2022-08-11T16:33:22;22.30;68.80
56300;DHT22;42209;6.376;-10.782;2022-08-11T16:36:13;22.00;66.90
56300;DHT22;42209;6.376;-10.782;2022-08-11T16:38:43;21.70;64.40
56300;DHT22;42209;6.376;-10.782;2022-08-11T16:41:17;21.60;62.70
56300;DHT22;42209;6.376;-10.782;2022-08-11T16:43:47;21.40;61.40
56300;DHT22;42209;6.376;-10.782;2022-08-11T16:46:18;21.30;60.00
56300;DHT22;42209;6.376;-10.782;2022-08-11T16:48:48;21.20;59.10
56300;DHT22;42209;6.376;-10.782;2022-08-11T16:51:18;21.30;60.50
56300;DHT22;42209;6.376;-10.782;2022-08-11T16:53:48;21.70;66.40
56300;DHT22;42209;6.376;-10.782;2022-08-11T16:56:46;22.00;69.40
56300;DHT22;42209;6.376;-10.782;2022-08-11T16:59:21;22.20;71.30
56300;DHT22;42209;6.376;-10.782;2022-08-11T17:02:14;22.40;72.80
56300;DHT22;42209;6.376;-10.782;2022-08-11T17:04:49;22.50;74.40
56300;DHT22;42209;6.376;-10.782;2022-08-11T17:07:20;22.50;75.30
56300;DHT22;42209;6.376;-10.782;2022-08-11T17:10:36;22.60;76.20
56300;DHT22;42209;6.376;-10.782;2022-08-11T17:16:31;22.80;78.00
56300;DHT22;42209;6.376;-10.782;2022-08-11T17:19:07;22.80;76.60
56300;DHT22;42209;6.376;-10.782;2022-08-11T17:21:43;22.40;69.50
56300;DHT22;42209;6.376;-10.782;2022-08-11T17:24:13;22.00;67.00
56300;DHT22;42209;6.376;-10.782;2022-08-11T17:26:45;21.70;64.80
56300;DHT22;42209;6.376;-10.782;2022-08-11T17:29:26;21.60;63.40
56300;DHT22;42209;6.376;-10.782;2022-08-11T17:31:56;21.40;61.40
56300;DHT22;42209;6.376;-10.782;2022-08-11T17:34:26;21.30;60.30
56300;DHT22;42209;6.376;-10.782;2022-08-11T17:36:55;21.30;60.60
56300;DHT22;42209;6.376;-10.782;2022-08-11T17:39:27;21.70;65.80
56300;DHT22;42209;6.376;-10.782;2022-08-11T17:41:57;22.00;69.00
56300;DHT22;42209;6.376;-10.782;2022-08-11T17:44:27;22.20;71.10
56300;DHT22;42209;6.376;-10.782;2022-08-11T17:46:57;22.30;72.30
56300;DHT22;42209;6.376;-10.782;2022-08-11T17:49:34;22.40;73.60
56300;DHT22;42209;6.376;-10.782;2022-08-11T17:52:05;22.50;74.70
56300;DHT22;42209;6.376;-10.782;2022-08-11T17:54:36;22.60;75.70
56300;DHT22;42209;6.376;-10.782;2022-08-11T17:57:09;22.60;76.20
56300;DHT22;42209;6.376;-10.782;2022-08-11T17:59:49;22.70;76.90
56300;DHT22;42209;6.376;-10.782;2022-08-11T18:02:23;22.80;77.50
56300;DHT22;42209;6.376;-10.782;2022-08-11T18:05:02;22.80;77.40
56300;DHT22;42209;6.376;-10.782;2022-08-11T18:07:43;22.80;72.80
56300;DHT22;42209;6.376;-10.782;2022-08-11T18:10:12;22.20;68.30
56300;DHT22;42209;6.376;-10.782;2022-08-11T18:12:41;21.90;65.90
56300;DHT22;42209;6.376;-10.782;2022-08-11T18:15:11;21.60;64.00
56300;DHT22;42209;6.376;-10.782;2022-08-11T18:17:41;21.40;62.40
56300;DHT22;42209;6.376;-10.782;2022-08-11T18:20:09;21.30;61.00
56300;DHT22;42209;6.376;-10.782;2022-08-11T18:22:40;21.30;59.80
56300;DHT22;42209;6.376;-10.782;2022-08-11T18:25:13;21.20;60.00
56300;DHT22;42209;6.376;-10.782;2022-08-11T18:27:45;21.70;65.80
56300;DHT22;42209;6.376;-10.782;2022-08-11T18:30:15;22.00;68.30
56300;DHT22;42209;6.376;-10.782;2022-08-11T18:32:47;22.10;70.20
56300;DHT22;42209;6.376;-10.782;2022-08-11T18:35:18;22.30;71.70
56300;DHT22;42209;6.376;-10.782;2022-08-11T18:37:48;22.40;73.10
56300;DHT22;42209;6.376;-10.782;2022-08-11T18:40:22;22.50;74.20
56300;DHT22;42209;6.376;-10.782;2022-08-11T18:42:53;22.50;75.30
56300;DHT22;42209;6.376;-10.782;2022-08-11T18:45:22;22.60;76.00
56300;DHT22;42209;6.376;-10.782;2022-08-11T18:48:10;22.70;76.40
56300;DHT22;42209;6.376;-10.782;2022-08-11T18:50:41;22.70;77.10
56300;DHT22;42209;6.376;-10.782;2022-08-11T18:53:23;22.80;76.90
56300;DHT22;42209;6.376;-10.782;2022-08-11T18:55:53;22.90;76.90
56300;DHT22;42209;6.376;-10.782;2022-08-11T18:58:27;22.60;69.90
56300;DHT22;42209;6.376;-10.782;2022-08-11T19:00:57;22.10;66.60
56300;DHT22;42209;6.376;-10.782;2022-08-11T19:03:28;21.80;64.60
56300;DHT22;42209;6.376;-10.782;2022-08-11T19:06:00;21.50;62.90